Check out our new PWSWeather beta!
PWSweather.com
Personal Weather Stations
Station Observations
IONTARIO88
Lincoln, ON L0R

Lincoln, ON L0R

Lat: 43.1763563, Lon: -79.4719525

Elevation: 297

Station Type: Davis Vantage Pro 2 Plus

http://www.beamsvillewx.ca

High Low Average
Temperature 84.6°F29.2°C 65.8°F18.8°C 73.9°F23.3°C
Dew Point 69.4°F20.8°C 53.7°F12.1°C 62.8°F17.1°C
Winds 7.0 mph 11.3 kmh Calm Calm 4.0 mph SW6.4 kmh SW
Wind Gusts 23.0 mph37.0 kmh 1.0 mph1.6 kmh 9.0 mph14.5 kmh
Humidity 93% 36% 71%
Pressure 29.84 in1010.5 mb 29.73 in1006.8 mb -
Precipitation 0.00 in0.0 mm - -
Hour Temp Dew Point Humidity Winds Wind Gusts Pressure Precip Precip Rate Daily Precip Total
12:00 AM 72.5°F22.5°C 69.4°F20.8°C 90% 3.0 mph S4.8 kmh S 8.0 mph12.9 kmh 29.77 in1008.1 mb 0.00 in0.0 mm 0.00 in0.0 mm 0.00 in0.0 mm
12:15 AM 72.3°F22.4°C 69.2°F20.7°C 90% 2.0 mph S3.2 kmh S 7.0 mph11.3 kmh 29.77 in1008.1 mb 0.00 in0.0 mm 0.00 in0.0 mm 0.00 in0.0 mm
12:30 AM 72.3°F22.4°C 69.2°F20.7°C 90% 1.0 mph S1.6 kmh S 6.0 mph9.7 kmh 29.76 in1007.8 mb 0.00 in0.0 mm 0.00 in0.0 mm 0.00 in0.0 mm
12:45 AM 72.3°F22.4°C 69.2°F20.7°C 90% 1.0 mph S1.6 kmh S 6.0 mph9.7 kmh 29.76 in1007.8 mb 0.00 in0.0 mm 0.00 in0.0 mm 0.00 in0.0 mm
01:00 AM 72.1°F22.3°C 69.0°F20.6°C 90% 2.0 mph S3.2 kmh S 6.0 mph9.7 kmh 29.75 in1007.5 mb 0.00 in0.0 mm 0.00 in0.0 mm 0.00 in0.0 mm
01:15 AM 72.0°F22.2°C 68.9°F20.5°C 90% 2.0 mph S3.2 kmh S 5.0 mph8.0 kmh 29.76 in1007.8 mb 0.00 in0.0 mm 0.00 in0.0 mm 0.00 in0.0 mm
01:30 AM 72.0°F22.2°C 68.9°F20.5°C 90% 3.0 mph SW4.8 kmh SW 6.0 mph9.7 kmh 29.76 in1007.8 mb 0.00 in0.0 mm 0.00 in0.0 mm 0.00 in0.0 mm
01:45 AM 72.0°F22.2°C 68.9°F20.5°C 90% 3.0 mph SW4.8 kmh SW 7.0 mph11.3 kmh 29.75 in1007.5 mb 0.00 in0.0 mm 0.00 in0.0 mm 0.00 in0.0 mm
02:00 AM 72.0°F22.2°C 68.9°F20.5°C 90% 3.0 mph SSW4.8 kmh SSW 8.0 mph12.9 kmh 29.75 in1007.5 mb 0.00 in0.0 mm 0.00 in0.0 mm 0.00 in0.0 mm
02:15 AM 71.8°F22.1°C 68.7°F20.4°C 90% 3.0 mph SW4.8 kmh SW 8.0 mph12.9 kmh 29.75 in1007.5 mb 0.00 in0.0 mm 0.00 in0.0 mm 0.00 in0.0 mm
02:30 AM 71.6°F22.0°C 68.5°F20.3°C 90% 2.0 mph SW3.2 kmh SW 7.0 mph11.3 kmh 29.74 in1007.1 mb 0.00 in0.0 mm 0.00 in0.0 mm 0.00 in0.0 mm
02:45 AM 71.4°F21.9°C 68.7°F20.4°C 91% 3.0 mph SW4.8 kmh SW 7.0 mph11.3 kmh 29.73 in1006.8 mb 0.00 in0.0 mm 0.00 in0.0 mm 0.00 in0.0 mm
03:00 AM 71.2°F21.8°C 68.5°F20.3°C 91% 2.0 mph SSW3.2 kmh SSW 5.0 mph8.0 kmh 29.74 in1007.1 mb 0.00 in0.0 mm 0.00 in0.0 mm 0.00 in0.0 mm
03:15 AM 71.2°F21.8°C 68.5°F20.3°C 91% 3.0 mph SW4.8 kmh SW 8.0 mph12.9 kmh 29.73 in1006.8 mb 0.00 in0.0 mm 0.00 in0.0 mm 0.00 in0.0 mm
03:30 AM 71.1°F21.7°C 68.3°F20.2°C 91% 2.0 mph SW3.2 kmh SW 7.0 mph11.3 kmh 29.73 in1006.8 mb 0.00 in0.0 mm 0.00 in0.0 mm 0.00 in0.0 mm
03:45 AM 71.1°F21.7°C 68.3°F20.2°C 91% 2.0 mph S3.2 kmh S 6.0 mph9.7 kmh 29.73 in1006.8 mb 0.00 in0.0 mm 0.00 in0.0 mm 0.00 in0.0 mm
04:00 AM 70.9°F21.6°C 68.1°F20.1°C 91% 2.0 mph S3.2 kmh S 7.0 mph11.3 kmh 29.74 in1007.1 mb 0.00 in0.0 mm 0.00 in0.0 mm 0.00 in0.0 mm
04:15 AM 70.7°F21.5°C 67.9°F19.9°C 91% 2.0 mph SSW3.2 kmh SSW 6.0 mph9.7 kmh 29.74 in1007.1 mb 0.00 in0.0 mm 0.00 in0.0 mm 0.00 in0.0 mm
04:30 AM 70.5°F21.4°C 67.8°F19.9°C 91% 2.0 mph S3.2 kmh S 5.0 mph8.0 kmh 29.75 in1007.5 mb 0.00 in0.0 mm 0.00 in0.0 mm 0.00 in0.0 mm
04:45 AM 70.3°F21.3°C 67.6°F19.8°C 91% 2.0 mph SSW3.2 kmh SSW 5.0 mph8.0 kmh 29.75 in1007.5 mb 0.00 in0.0 mm 0.00 in0.0 mm 0.00 in0.0 mm
05:00 AM 70.2°F21.2°C 67.4°F19.7°C 91% 1.0 mph S1.6 kmh S 3.0 mph4.8 kmh 29.75 in1007.5 mb 0.00 in0.0 mm 0.00 in0.0 mm 0.00 in0.0 mm
05:15 AM 69.6°F20.9°C 66.9°F19.4°C 91% 2.0 mph S3.2 kmh S 5.0 mph8.0 kmh 29.75 in1007.5 mb 0.00 in0.0 mm 0.00 in0.0 mm 0.00 in0.0 mm
05:30 AM 69.3°F20.7°C 66.8°F19.3°C 92% 1.0 mph S1.6 kmh S 5.0 mph8.0 kmh 29.76 in1007.8 mb 0.00 in0.0 mm 0.00 in0.0 mm 0.00 in0.0 mm
05:45 AM 68.9°F20.5°C 66.5°F19.2°C 92% Calm Calm 2.0 mph3.2 kmh 29.76 in1007.8 mb 0.00 in0.0 mm 0.00 in0.0 mm 0.00 in0.0 mm
06:00 AM 68.5°F20.3°C 66.1°F18.9°C 92% Calm Calm 2.0 mph3.2 kmh 29.77 in1008.1 mb 0.00 in0.0 mm 0.00 in0.0 mm 0.00 in0.0 mm
06:15 AM 68.0°F20.0°C 65.6°F18.7°C 92% 1.0 mph S1.6 kmh S 6.0 mph9.7 kmh 29.77 in1008.1 mb 0.00 in0.0 mm 0.00 in0.0 mm 0.00 in0.0 mm
06:30 AM 67.6°F19.8°C 65.2°F18.4°C 92% Calm Calm 1.0 mph1.6 kmh 29.77 in1008.1 mb 0.00 in0.0 mm 0.00 in0.0 mm 0.00 in0.0 mm
06:45 AM 67.5°F19.7°C 65.1°F18.4°C 92% Calm Calm 4.0 mph6.4 kmh 29.77 in1008.1 mb 0.00 in0.0 mm 0.00 in0.0 mm 0.00 in0.0 mm
07:00 AM 67.5°F19.7°C 65.4°F18.6°C 93% 1.0 mph S1.6 kmh S 3.0 mph4.8 kmh 29.77 in1008.1 mb 0.00 in0.0 mm 0.00 in0.0 mm 0.00 in0.0 mm
07:15 AM 68.2°F20.1°C 66.1°F18.9°C 93% 1.0 mph SSW1.6 kmh SSW 4.0 mph6.4 kmh 29.77 in1008.1 mb 0.00 in0.0 mm 0.00 in0.0 mm 0.00 in0.0 mm
07:30 AM 68.9°F20.5°C 66.5°F19.2°C 92% 1.0 mph SSW1.6 kmh SSW 5.0 mph8.0 kmh 29.77 in1008.1 mb 0.00 in0.0 mm 0.00 in0.0 mm 0.00 in0.0 mm
07:45 AM 70.2°F21.2°C 66.4°F19.1°C 88% 1.0 mph S1.6 kmh S 6.0 mph9.7 kmh 29.77 in1008.1 mb 0.00 in0.0 mm 0.00 in0.0 mm 0.00 in0.0 mm
08:00 AM 71.1°F21.7°C 66.0°F18.9°C 84% 1.0 mph S1.6 kmh S 4.0 mph6.4 kmh 29.77 in1008.1 mb 0.00 in0.0 mm 0.00 in0.0 mm 0.00 in0.0 mm
08:15 AM 72.1°F22.3°C 65.3°F18.5°C 79% 3.0 mph SW4.8 kmh SW 8.0 mph12.9 kmh 29.77 in1008.1 mb 0.00 in0.0 mm 0.00 in0.0 mm 0.00 in0.0 mm
08:30 AM 73.0°F22.8°C 65.0°F18.3°C 76% 4.0 mph WSW6.4 kmh WSW 8.0 mph12.9 kmh 29.78 in1008.5 mb 0.00 in0.0 mm 0.00 in0.0 mm 0.00 in0.0 mm
08:45 AM 73.9°F23.3°C 64.7°F18.2°C 73% 4.0 mph WSW6.4 kmh WSW 8.0 mph12.9 kmh 29.78 in1008.5 mb 0.00 in0.0 mm 0.00 in0.0 mm 0.00 in0.0 mm
09:00 AM 75.0°F23.9°C 65.0°F18.3°C 71% 4.0 mph WSW6.4 kmh WSW 10.0 mph16.1 kmh 29.77 in1008.1 mb 0.00 in0.0 mm 0.00 in0.0 mm 0.00 in0.0 mm
09:15 AM 75.6°F24.2°C 64.7°F18.2°C 69% 5.0 mph SW8.0 kmh SW 10.0 mph16.1 kmh 29.77 in1008.1 mb 0.00 in0.0 mm 0.00 in0.0 mm 0.00 in0.0 mm
09:30 AM 76.1°F24.5°C 65.2°F18.4°C 69% 3.0 mph SW4.8 kmh SW 8.0 mph12.9 kmh 29.77 in1008.1 mb 0.00 in0.0 mm 0.00 in0.0 mm 0.00 in0.0 mm
09:45 AM 76.8°F24.9°C 65.0°F18.3°C 67% 4.0 mph SW6.4 kmh SW 9.0 mph14.5 kmh 29.77 in1008.1 mb 0.00 in0.0 mm 0.00 in0.0 mm 0.00 in0.0 mm
10:00 AM 77.7°F25.4°C 64.1°F17.8°C 63% 4.0 mph SW6.4 kmh SW 11.0 mph17.7 kmh 29.77 in1008.1 mb 0.00 in0.0 mm 0.00 in0.0 mm 0.00 in0.0 mm
10:15 AM 78.4°F25.8°C 64.3°F17.9°C 62% 4.0 mph SW6.4 kmh SW 11.0 mph17.7 kmh 29.77 in1008.1 mb 0.00 in0.0 mm 0.00 in0.0 mm 0.00 in0.0 mm
10:30 AM 79.0°F26.1°C 63.4°F17.4°C 59% 5.0 mph SW8.0 kmh SW 12.0 mph19.3 kmh 29.76 in1007.8 mb 0.00 in0.0 mm 0.00 in0.0 mm 0.00 in0.0 mm
10:45 AM 79.7°F26.5°C 65.5°F18.6°C 62% 4.0 mph WSW6.4 kmh WSW 12.0 mph19.3 kmh 29.77 in1008.1 mb 0.00 in0.0 mm 0.00 in0.0 mm 0.00 in0.0 mm
11:00 AM 79.9°F26.6°C 64.3°F17.9°C 59% 5.0 mph WSW8.0 kmh WSW 10.0 mph16.1 kmh 29.76 in1007.8 mb 0.00 in0.0 mm 0.00 in0.0 mm 0.00 in0.0 mm
11:15 AM 80.2°F26.8°C 61.0°F16.1°C 52% 6.0 mph W9.7 kmh W 15.0 mph24.1 kmh 29.76 in1007.8 mb 0.00 in0.0 mm 0.00 in0.0 mm 0.00 in0.0 mm
11:30 AM 80.6°F27.0°C 61.9°F16.6°C 53% 6.0 mph WSW9.7 kmh WSW 10.0 mph16.1 kmh 29.76 in1007.8 mb 0.00 in0.0 mm 0.00 in0.0 mm 0.00 in0.0 mm
11:45 AM 80.8°F27.1°C 61.5°F16.4°C 52% 6.0 mph SW9.7 kmh SW 12.0 mph19.3 kmh 29.76 in1007.8 mb 0.00 in0.0 mm 0.00 in0.0 mm 0.00 in0.0 mm
12:00 PM 81.3°F27.4°C 60.9°F16.1°C 50% 5.0 mph SW8.0 kmh SW 14.0 mph22.5 kmh 29.76 in1007.8 mb 0.00 in0.0 mm 0.00 in0.0 mm 0.00 in0.0 mm
12:15 PM 81.9°F27.7°C 63.1°F17.3°C 53% 5.0 mph SW8.0 kmh SW 13.0 mph20.9 kmh 29.76 in1007.8 mb 0.00 in0.0 mm 0.00 in0.0 mm 0.00 in0.0 mm
12:30 PM 81.7°F27.6°C 61.2°F16.2°C 50% 7.0 mph WSW11.3 kmh WSW 13.0 mph20.9 kmh 29.76 in1007.8 mb 0.00 in0.0 mm 0.00 in0.0 mm 0.00 in0.0 mm
12:45 PM 82.2°F27.9°C 60.6°F15.9°C 48% 7.0 mph WSW11.3 kmh WSW 15.0 mph24.1 kmh 29.76 in1007.8 mb 0.00 in0.0 mm 0.00 in0.0 mm 0.00 in0.0 mm
01:00 PM 83.3°F28.5°C 57.8°F14.3°C 42% 5.0 mph SW8.0 kmh SW 14.0 mph22.5 kmh 29.76 in1007.8 mb 0.00 in0.0 mm 0.00 in0.0 mm 0.00 in0.0 mm
01:15 PM 83.8°F28.8°C 59.6°F15.3°C 44% 5.0 mph WSW8.0 kmh WSW 12.0 mph19.3 kmh 29.76 in1007.8 mb 0.00 in0.0 mm 0.00 in0.0 mm 0.00 in0.0 mm
01:30 PM 84.6°F29.2°C 57.6°F14.2°C 40% 6.0 mph WSW9.7 kmh WSW 13.0 mph20.9 kmh 29.75 in1007.5 mb 0.00 in0.0 mm 0.00 in0.0 mm 0.00 in0.0 mm
01:45 PM 83.5°F28.6°C 55.9°F13.3°C 39% 6.0 mph SW9.7 kmh SW 14.0 mph22.5 kmh 29.75 in1007.5 mb 0.00 in0.0 mm 0.00 in0.0 mm 0.00 in0.0 mm
02:00 PM 83.5°F28.6°C 55.2°F12.9°C 38% 6.0 mph SW9.7 kmh SW 17.0 mph27.4 kmh 29.75 in1007.5 mb 0.00 in0.0 mm 0.00 in0.0 mm 0.00 in0.0 mm
02:15 PM 83.5°F28.6°C 53.7°F12.1°C 36% 6.0 mph WSW9.7 kmh WSW 13.0 mph20.9 kmh 29.75 in1007.5 mb 0.00 in0.0 mm 0.00 in0.0 mm 0.00 in0.0 mm
02:30 PM 82.8°F28.2°C 56.0°F13.3°C 40% 6.0 mph SSW9.7 kmh SSW 12.0 mph19.3 kmh 29.75 in1007.5 mb 0.00 in0.0 mm 0.00 in0.0 mm 0.00 in0.0 mm
02:45 PM 81.7°F27.6°C 56.4°F13.6°C 42% 5.0 mph SW8.0 kmh SW 12.0 mph19.3 kmh 29.75 in1007.5 mb 0.00 in0.0 mm 0.00 in0.0 mm 0.00 in0.0 mm
03:00 PM 80.6°F27.0°C 56.0°F13.3°C 43% 6.0 mph SSW9.7 kmh SSW 23.0 mph37.0 kmh 29.75 in1007.5 mb 0.00 in0.0 mm 0.00 in0.0 mm 0.00 in0.0 mm
03:15 PM 79.3°F26.3°C 56.8°F13.8°C 46% 6.0 mph SSW9.7 kmh SSW 18.0 mph29.0 kmh 29.75 in1007.5 mb 0.00 in0.0 mm 0.00 in0.0 mm 0.00 in0.0 mm
03:30 PM 80.4°F26.9°C 58.3°F14.6°C 47% 6.0 mph SW9.7 kmh SW 17.0 mph27.4 kmh 29.75 in1007.5 mb 0.00 in0.0 mm 0.00 in0.0 mm 0.00 in0.0 mm
03:45 PM 81.1°F27.3°C 57.8°F14.3°C 45% 7.0 mph SW11.3 kmh SW 16.0 mph25.7 kmh 29.76 in1007.8 mb 0.00 in0.0 mm 0.00 in0.0 mm 0.00 in0.0 mm
04:00 PM 80.4°F26.9°C 58.3°F14.6°C 47% 7.0 mph SW11.3 kmh SW 16.0 mph25.7 kmh 29.76 in1007.8 mb 0.00 in0.0 mm 0.00 in0.0 mm 0.00 in0.0 mm
04:15 PM 79.0°F26.1°C 58.8°F14.9°C 50% 6.0 mph SW9.7 kmh SW 14.0 mph22.5 kmh 29.76 in1007.8 mb 0.00 in0.0 mm 0.00 in0.0 mm 0.00 in0.0 mm
04:30 PM 77.4°F25.2°C 59.4°F15.2°C 54% 6.0 mph SSW9.7 kmh SSW 16.0 mph25.7 kmh 29.76 in1007.8 mb 0.00 in0.0 mm 0.00 in0.0 mm 0.00 in0.0 mm
04:45 PM 76.6°F24.8°C 59.8°F15.4°C 56% 7.0 mph SW11.3 kmh SW 20.0 mph32.2 kmh 29.76 in1007.8 mb 0.00 in0.0 mm 0.00 in0.0 mm 0.00 in0.0 mm
05:00 PM 76.8°F24.9°C 59.9°F15.5°C 56% 7.0 mph SSW11.3 kmh SSW 17.0 mph27.4 kmh 29.77 in1008.1 mb 0.00 in0.0 mm 0.00 in0.0 mm 0.00 in0.0 mm
05:15 PM 76.5°F24.7°C 60.6°F15.9°C 58% 5.0 mph SSW8.0 kmh SSW 13.0 mph20.9 kmh 29.77 in1008.1 mb 0.00 in0.0 mm 0.00 in0.0 mm 0.00 in0.0 mm
05:30 PM 75.9°F24.4°C 60.1°F15.6°C 58% 6.0 mph SSW9.7 kmh SSW 14.0 mph22.5 kmh 29.76 in1007.8 mb 0.00 in0.0 mm 0.00 in0.0 mm 0.00 in0.0 mm
05:45 PM 75.6°F24.2°C 60.2°F15.7°C 59% 6.0 mph SSW9.7 kmh SSW 13.0 mph20.9 kmh 29.77 in1008.1 mb 0.00 in0.0 mm 0.00 in0.0 mm 0.00 in0.0 mm
06:00 PM 74.8°F23.8°C 60.5°F15.8°C 61% 6.0 mph SSW9.7 kmh SSW 12.0 mph19.3 kmh 29.77 in1008.1 mb 0.00 in0.0 mm 0.00 in0.0 mm 0.00 in0.0 mm
06:15 PM 74.5°F23.6°C 60.1°F15.6°C 61% 4.0 mph SSW6.4 kmh SSW 14.0 mph22.5 kmh 29.77 in1008.1 mb 0.00 in0.0 mm 0.00 in0.0 mm 0.00 in0.0 mm
06:30 PM 73.8°F23.2°C 60.4°F15.8°C 63% 4.0 mph SSW6.4 kmh SSW 10.0 mph16.1 kmh 29.78 in1008.5 mb 0.00 in0.0 mm 0.00 in0.0 mm 0.00 in0.0 mm
06:45 PM 73.0°F22.8°C 60.1°F15.6°C 64% 3.0 mph S4.8 kmh S 7.0 mph11.3 kmh 29.78 in1008.5 mb 0.00 in0.0 mm 0.00 in0.0 mm 0.00 in0.0 mm
07:00 PM 72.3°F22.4°C 59.9°F15.5°C 65% 3.0 mph SSW4.8 kmh SSW 7.0 mph11.3 kmh 29.78 in1008.5 mb 0.00 in0.0 mm 0.00 in0.0 mm 0.00 in0.0 mm
07:15 PM 71.8°F22.1°C 59.8°F15.4°C 66% 4.0 mph SSW6.4 kmh SSW 9.0 mph14.5 kmh 29.78 in1008.5 mb 0.00 in0.0 mm 0.00 in0.0 mm 0.00 in0.0 mm
07:30 PM 71.1°F21.7°C 59.5°F15.3°C 67% 4.0 mph SSW6.4 kmh SSW 10.0 mph16.1 kmh 29.79 in1008.8 mb 0.00 in0.0 mm 0.00 in0.0 mm 0.00 in0.0 mm
07:45 PM 70.5°F21.4°C 59.0°F15.0°C 67% 4.0 mph SSW6.4 kmh SSW 12.0 mph19.3 kmh 29.79 in1008.8 mb 0.00 in0.0 mm 0.00 in0.0 mm 0.00 in0.0 mm
08:00 PM 70.2°F21.2°C 59.1°F15.1°C 68% 4.0 mph SSW6.4 kmh SSW 9.0 mph14.5 kmh 29.80 in1009.1 mb 0.00 in0.0 mm 0.00 in0.0 mm 0.00 in0.0 mm
08:15 PM 70.0°F21.1°C 59.3°F15.2°C 69% 5.0 mph SSW8.0 kmh SSW 12.0 mph19.3 kmh 29.80 in1009.1 mb 0.00 in0.0 mm 0.00 in0.0 mm 0.00 in0.0 mm
08:30 PM 70.0°F21.1°C 59.3°F15.2°C 69% 4.0 mph SSW6.4 kmh SSW 13.0 mph20.9 kmh 29.80 in1009.1 mb 0.00 in0.0 mm 0.00 in0.0 mm 0.00 in0.0 mm
08:45 PM 69.6°F20.9°C 59.4°F15.2°C 70% 4.0 mph SW6.4 kmh SW 10.0 mph16.1 kmh 29.80 in1009.1 mb 0.00 in0.0 mm 0.00 in0.0 mm 0.00 in0.0 mm
09:00 PM 69.4°F20.8°C 59.6°F15.3°C 71% 3.0 mph S4.8 kmh S 10.0 mph16.1 kmh 29.81 in1009.5 mb 0.00 in0.0 mm 0.00 in0.0 mm 0.00 in0.0 mm
09:15 PM 69.4°F20.8°C 59.6°F15.3°C 71% 4.0 mph SW6.4 kmh SW 10.0 mph16.1 kmh 29.81 in1009.5 mb 0.00 in0.0 mm 0.00 in0.0 mm 0.00 in0.0 mm
09:30 PM 69.1°F20.6°C 60.1°F15.6°C 73% 4.0 mph W6.4 kmh W 8.0 mph12.9 kmh 29.82 in1009.8 mb 0.00 in0.0 mm 0.00 in0.0 mm 0.00 in0.0 mm
09:45 PM 68.0°F20.0°C 60.9°F16.1°C 78% 4.0 mph WSW6.4 kmh WSW 7.0 mph11.3 kmh 29.82 in1009.8 mb 0.00 in0.0 mm 0.00 in0.0 mm 0.00 in0.0 mm
10:00 PM 67.6°F19.8°C 60.2°F15.7°C 77% 2.0 mph WSW3.2 kmh WSW 6.0 mph9.7 kmh 29.82 in1009.8 mb 0.00 in0.0 mm 0.00 in0.0 mm 0.00 in0.0 mm
10:15 PM 67.6°F19.8°C 60.9°F16.1°C 79% 2.0 mph WSW3.2 kmh WSW 6.0 mph9.7 kmh 29.82 in1009.8 mb 0.00 in0.0 mm 0.00 in0.0 mm 0.00 in0.0 mm
10:30 PM 67.5°F19.7°C 61.1°F16.2°C 80% 2.0 mph SW3.2 kmh SW 6.0 mph9.7 kmh 29.82 in1009.8 mb 0.00 in0.0 mm 0.00 in0.0 mm 0.00 in0.0 mm
10:45 PM 67.3°F19.6°C 61.2°F16.2°C 81% 1.0 mph SW1.6 kmh SW 6.0 mph9.7 kmh 29.82 in1009.8 mb 0.00 in0.0 mm 0.00 in0.0 mm 0.00 in0.0 mm
11:00 PM 67.1°F19.5°C 60.4°F15.8°C 79% 4.0 mph WSW6.4 kmh WSW 8.0 mph12.9 kmh 29.83 in1010.2 mb 0.00 in0.0 mm 0.00 in0.0 mm 0.00 in0.0 mm
11:15 PM 66.9°F19.4°C 58.7°F14.8°C 75% 3.0 mph WSW4.8 kmh WSW 9.0 mph14.5 kmh 29.83 in1010.2 mb 0.00 in0.0 mm 0.00 in0.0 mm 0.00 in0.0 mm
11:30 PM 66.6°F19.2°C 57.3°F14.1°C 72% 4.0 mph W6.4 kmh W 8.0 mph12.9 kmh 29.84 in1010.5 mb 0.00 in0.0 mm 0.00 in0.0 mm 0.00 in0.0 mm
11:45 PM 65.8°F18.8°C 56.6°F13.7°C 72% 3.0 mph W4.8 kmh W 7.0 mph11.3 kmh 29.84 in1010.5 mb 0.00 in0.0 mm 0.00 in0.0 mm 0.00 in0.0 mm